Time;durP1;ratioP1;P1;durP2;ratioP2;P2;SDS_P1;SDS_P2;PMS_P1;PMS_P2;Temp;Humidity;BMP_temperature;BMP_pressure;BME280_temperature;BME280_humidity;BME280_pressure;Samples;Min_cycle;Max_cycle;Signal;HPM_P1;HPM_P2
2021/07/01 00:00:23;;;;;;;37.30;25.38;;;;;;;24.75;68.53;98995.06;5114487;28;20030;-74
2021/07/01 00:02:48;;;;;;;34.60;21.92;;;;;;;24.78;68.43;98999.09;5114305;28;20080;-74
2021/07/01 00:05:15;;;;;;;31.38;20.90;;;;;;;24.60;68.40;98991.72;5114153;28;20056;-73
2021/07/01 00:07:47;;;;;;;32.30;21.38;;;;;;;24.73;68.07;98983.25;5114153;28;20113;-75
2021/07/01 00:10:27;;;;;;;37.38;21.52;;;;;;;24.23;69.59;98991.72;5114484;28;20040;-74
2021/07/01 00:12:56;;;;;;;25.67;21.73;;;;;;;24.14;70.27;98985.81;5114355;28;20491;-75
2021/07/01 00:15:24;;;;;;;34.88;22.13;;;;;;;24.26;69.27;98978.59;5112577;28;20508;-74
2021/07/01 00:17:50;;;;;;;31.30;21.95;;;;;;;24.35;68.76;98990.25;5114021;28;20501;-74
2021/07/01 00:20:16;;;;;;;32.03;23.05;;;;;;;24.28;69.21;98981.81;5114120;28;20309;-74
2021/07/01 00:22:42;;;;;;;35.03;21.67;;;;;;;24.20;69.44;98984.03;5114178;28;20019;-74
2021/07/01 00:28:30;;;;;;;30.25;21.40;;;;;;;24.07;69.84;98971.66;5113899;28;20070;-74
2021/07/01 00:30:55;;;;;;;23.88;21.30;;;;;;;24.12;70.02;98979.69;5113801;28;20051;-74
2021/07/01 00:33:21;;;;;;;30.55;21.60;;;;;;;24.20;69.81;98981.16;5112459;28;20506;-73
2021/07/01 00:35:46;;;;;;;34.67;21.38;;;;;;;24.17;69.50;98982.06;5112185;28;20057;-73
2021/07/01 00:38:12;;;;;;;36.17;21.33;;;;;;;24.22;69.88;98975.03;5113729;28;20032;-73
2021/07/01 00:40:37;;;;;;;29.63;21.00;;;;;;;24.06;70.02;98973.69;5113729;28;20111;-74
2021/07/01 00:43:03;;;;;;;34.15;22.10;;;;;;;23.86;70.88;98967.97;5113626;28;20114;-73
2021/07/01 00:45:29;;;;;;;32.17;21.98;;;;;;;23.91;70.71;98969.50;5113611;28;20503;-74
2021/07/01 00:47:54;;;;;;;30.17;21.45;;;;;;;23.94;70.29;98957.19;5112709;28;20032;-73
2021/07/01 00:50:23;;;;;;;31.50;20.92;;;;;;;23.93;70.61;98958.44;5112138;28;20489;-73
2021/07/01 00:52:49;;;;;;;29.58;22.05;;;;;;;24.07;70.04;98963.91;5111984;28;20060;-73
2021/07/01 00:55:14;;;;;;;30.58;21.40;;;;;;;24.19;69.68;98961.59;5113337;28;20039;-74
2021/07/01 00:57:40;;;;;;;32.85;19.85;;;;;;;24.46;68.57;98963.50;5113372;28;20140;-73
2021/07/01 01:00:22;;;;;;;27.35;21.00;;;;;;;24.40;68.84;98952.56;5113657;28;20030;-73
2021/07/01 01:02:47;;;;;;;28.40;20.77;;;;;;;24.22;69.11;98960.75;5113363;28;20063;-73
2021/07/01 01:05:13;;;;;;;38.47;21.23;;;;;;;24.20;69.31;98961.16;5111752;28;20111;-73
2021/07/01 01:07:39;;;;;;;32.95;21.33;;;;;;;24.08;69.59;98967.56;5111836;28;20041;-74
2021/07/01 01:10:05;;;;;;;75.85;24.30;;;;;;;23.94;70.09;98969.44;5113432;28;20455;-74
2021/07/01 01:12:31;;;;;;;27.92;21.33;;;;;;;23.90;70.04;98973.59;5114942;27;20089;-74
2021/07/01 01:14:57;;;;;;;26.33;20.67;;;;;;;23.77;70.45;98962.03;5112023;28;20031;-73
2021/07/01 01:17:23;;;;;;;31.83;21.42;;;;;;;23.70;70.65;98963.78;5109999;27;20054;-74
2021/07/01 01:19:48;;;;;;;29.13;19.90;;;;;;;23.62;70.60;98953.75;5112670;28;20040;-73
2021/07/01 01:22:14;;;;;;;30.90;21.23;;;;;;;23.58;70.88;98970.13;5112762;28;20051;-73
2021/07/01 01:24:39;;;;;;;39.50;22.13;;;;;;;23.70;70.78;98977.25;5111619;28;20482;-73
2021/07/01 01:27:05;;;;;;;27.02;19.63;;;;;;;23.73;70.56;98972.72;5112812;28;20024;-73
2021/07/01 01:30:08;;;;;;;33.42;20.13;;;;;;;23.69;70.71;98975.63;5112813;28;20035;-73
2021/07/01 01:56:05;;;;;;;28.60;21.45;;;;;;;24.21;68.04;98982.78;5101452;28;20483;-73
2021/07/01 01:58:31;;;;;;;26.42;21.10;;;;;;;24.15;68.33;98980.88;5110086;28;20036;-74
2021/07/01 02:00:56;;;;;;;36.13;21.88;;;;;;;24.13;68.02;98980.53;5111694;28;20059;-74
2021/07/01 02:03:22;;;;;;;29.35;21.42;;;;;;;24.12;68.47;98979.69;5112043;27;20051;-74
2021/07/01 02:05:48;;;;;;;35.78;22.83;;;;;;;23.91;69.37;98992.34;5111834;28;20420;-73
2021/07/01 02:08:13;;;;;;;26.58;22.25;;;;;;;24.00;68.96;98988.91;5111956;28;20023;-74
2021/07/01 02:10:39;;;;;;;26.88;21.80;;;;;;;24.08;68.61;99001.81;5110235;28;20028;-74
2021/07/01 02:13:10;;;;;;;32.28;21.85;;;;;;;24.19;68.72;98993.03;5111959;27;20016;-73
2021/07/01 02:15:36;;;;;;;31.45;23.42;;;;;;;24.06;69.00;98990.84;5111670;28;20492;-73
2021/07/01 02:18:01;;;;;;;29.33;21.70;;;;;;;24.06;68.78;98995.75;5111777;28;20026;-73
2021/07/01 02:20:28;;;;;;;28.13;22.38;;;;;;;24.07;68.82;98998.19;5111984;28;20046;-74
2021/07/01 02:22:53;;;;;;;30.33;20.83;;;;;;;24.10;68.59;98999.34;5111812;28;20045;-73
2021/07/01 02:25:19;;;;;;;27.25;20.90;;;;;;;24.14;68.39;99000.09;5111451;28;20023;-74
2021/07/01 02:27:45;;;;;;;30.35;23.17;;;;;;;24.00;68.82;99000.31;5111528;28;20015;-73
2021/07/01 02:30:14;;;;;;;37.97;23.35;;;;;;;23.92;69.04;98996.81;5111896;28;20075;-73
2021/07/01 02:32:40;;;;;;;32.63;24.13;;;;;;;23.78;69.46;99001.56;5111441;27;20024;-73
2021/07/01 02:35:08;;;;;;;35.30;22.73;;;;;;;23.74;69.47;99003.69;5111064;28;20027;-74
2021/07/01 02:37:34;;;;;;;41.53;22.63;;;;;;;23.66;69.06;99014.44;5124409;27;20023;-74
2021/07/01 02:40:00;;;;;;;29.33;22.25;;;;;;;23.62;69.39;99010.81;5097452;28;20031;-73
2021/07/01 02:42:26;;;;;;;34.95;22.55;;;;;;;23.50;69.59;99006.56;5111296;28;20556;-74
2021/07/01 02:44:51;;;;;;;40.17;24.25;;;;;;;23.53;69.39;99010.56;5111554;28;20391;-73
2021/07/01 02:47:17;;;;;;;37.05;23.55;;;;;;;23.49;68.75;99019.22;5120172;27;20110;-73
2021/07/01 02:49:42;;;;;;;34.63;22.20;;;;;;;23.23;69.75;99018.81;5115522;27;20397;-73
2021/07/01 02:52:08;;;;;;;28.42;20.20;;;;;;;23.22;69.84;99027.81;5117919;27;20022;-73
2021/07/01 02:54:34;;;;;;;61.05;46.42;;;;;;;23.14;70.09;99025.06;5116201;27;20497;-73
2021/07/01 02:57:01;;;;;;;71.50;63.22;;;;;;;23.03;70.42;99023.63;5109613;28;20147;-74
2021/07/01 02:59:27;;;;;;;60.10;50.58;;;;;;;23.11;70.34;99023.06;5111247;28;20036;-73
2021/07/01 03:01:53;;;;;;;39.78;31.08;;;;;;;22.98;70.63;99024.91;5110904;28;20095;-73
2021/07/01 03:04:18;;;;;;;40.67;27.63;;;;;;;22.90;71.15;99026.25;5111312;28;20106;-73
2021/07/01 03:06:44;;;;;;;31.58;23.92;;;;;;;22.91;71.25;99020.13;5109860;28;20106;-74
2021/07/01 03:09:11;;;;;;;53.03;25.30;;;;;;;22.99;70.82;99027.34;5117851;27;20039;-73
2021/07/01 03:11:38;;;;;;;40.20;23.58;;;;;;;22.76;71.63;99030.16;5115210;27;20517;-73
2021/07/01 03:14:04;;;;;;;40.63;22.60;;;;;;;22.68;72.06;99035.13;5110774;28;20077;-73
2021/07/01 03:16:31;;;;;;;38.63;21.88;;;;;;;22.64;72.00;99052.28;5122325;27;20023;-73
2021/07/01 03:18:57;;;;;;;32.70;22.95;;;;;;;22.44;72.72;99054.94;5120732;27;20035;-74
2021/07/01 03:21:23;;;;;;;33.17;23.42;;;;;;;22.46;73.00;99041.09;5109387;28;20081;-73
2021/07/01 03:23:48;;;;;;;36.60;23.42;;;;;;;22.54;72.83;99056.09;5110726;28;20032;-74
2021/07/01 03:26:16;;;;;;;34.75;23.58;;;;;;;22.66;72.70;99043.28;5109213;28;20031;-69
2021/07/01 03:28:43;;;;;;;34.63;23.95;;;;;;;22.90;71.92;99047.03;5110846;28;20401;-76
2021/07/01 03:31:09;;;;;;;31.15;22.42;;;;;;;22.98;71.33;99050.59;5123645;28;20042;-73
2021/07/01 03:33:35;;;;;;;37.63;23.70;;;;;;;22.98;71.74;99053.44;5110838;28;20110;-74
2021/07/01 03:36:03;;;;;;;33.60;23.65;;;;;;;23.03;71.71;99058.63;5123578;28;20051;-70
2021/07/01 03:38:29;;;;;;;37.75;23.27;;;;;;;23.16;70.81;99060.91;5110588;28;20036;-72
2021/07/01 03:40:55;;;;;;;41.13;23.45;;;;;;;23.13;71.13;99056.88;5109397;28;20425;-71
2021/07/01 03:43:21;;;;;;;29.08;23.98;;;;;;;23.18;71.18;99062.09;5117691;28;20035;-72
2021/07/01 03:45:47;;;;;;;37.80;24.80;;;;;;;23.16;71.13;99063.75;5113421;28;20055;-71
2021/07/01 03:48:12;;;;;;;49.53;25.27;;;;;;;23.08;71.41;99063.06;5110344;28;20118;-72
2021/07/01 03:50:39;;;;;;;39.15;24.92;;;;;;;23.11;71.70;99068.72;5107351;28;20481;-71
2021/07/01 03:53:05;;;;;;;34.33;25.90;;;;;;;23.08;71.67;99055.31;5108710;28;20545;-74
2021/07/01 03:55:31;;;;;;;38.20;25.40;;;;;;;23.01;72.19;99063.97;5108452;28;20196;-71
2021/07/01 03:57:57;;;;;;;35.95;25.02;;;;;;;23.13;71.89;99071.94;5109993;28;20107;-71
2021/07/01 04:00:23;;;;;;;36.97;24.17;;;;;;;23.13;72.13;99065.44;5108886;28;20085;-72
2021/07/01 04:02:48;;;;;;;35.80;24.15;;;;;;;23.26;71.46;99072.16;5108271;28;20020;-72
2021/07/01 04:05:14;;;;;;;39.72;25.35;;;;;;;23.31;71.56;99068.03;5110015;28;20042;-72
2021/07/01 04:07:40;;;;;;;44.65;26.27;;;;;;;23.42;71.56;99074.38;5109741;28;20110;-74
2021/07/01 04:10:09;;;;;;;33.85;25.13;;;;;;;23.27;71.88;99065.22;5107745;28;20416;-71
2021/07/01 04:12:35;;;;;;;38.95;25.98;;;;;;;23.17;72.41;99071.06;5108361;28;20028;-72
2021/07/01 04:15:03;;;;;;;36.63;25.92;;;;;;;23.31;72.08;99068.03;5106830;28;20039;-73
2021/07/01 04:17:28;;;;;;;34.85;25.42;;;;;;;23.43;72.06;99069.47;5106731;28;20390;-72
2021/07/01 04:19:54;;;;;;;38.10;27.17;;;;;;;23.56;71.65;99059.03;5107808;28;20042;-74
2021/07/01 04:22:19;;;;;;;44.10;26.42;;;;;;;23.60;71.80;99058.97;5119815;27;20546;-77
2021/07/01 04:24:45;;;;;;;34.75;25.90;;;;;;;23.55;72.36;99063.13;5113970;28;20102;-71
2021/07/01 04:27:11;;;;;;;37.75;25.98;;;;;;;23.56;72.38;99066.81;5113900;28;20015;-77
2021/07/01 04:29:37;;;;;;;32.63;25.70;;;;;;;23.54;72.20;99057.88;5111994;28;20027;-72
2021/07/01 04:32:03;;;;;;;33.92;25.73;;;;;;;23.70;71.83;99063.69;5111800;28;20031;-77
2021/07/01 04:34:28;;;;;;;37.17;24.45;;;;;;;23.76;71.77;99069.72;5124886;27;20481;-77
2021/07/01 04:36:54;;;;;;;31.80;26.58;;;;;;;23.64;72.28;99070.34;5118868;27;20408;-77
2021/07/01 04:39:20;;;;;;;32.38;25.15;;;;;;;23.74;71.85;99063.63;5115900;27;20481;-71
2021/07/01 04:41:45;;;;;;;33.42;25.42;;;;;;;23.81;71.75;99065.56;5111981;28;20070;-77
2021/07/01 04:44:11;;;;;;;30.85;24.75;;;;;;;23.83;71.29;99061.03;5111341;28;20089;-72
2021/07/01 04:46:37;;;;;;;31.48;24.23;;;;;;;23.94;70.58;99057.97;5113573;28;20027;-71
2021/07/01 04:49:03;;;;;;;34.90;25.23;;;;;;;23.96;71.14;99057.53;5113815;28;20111;-77
2021/07/01 04:51:29;;;;;;;32.20;24.13;;;;;;;24.06;70.70;99042.25;5111683;28;20485;-76
2021/07/01 04:53:54;;;;;;;33.83;24.20;;;;;;;24.13;70.72;99049.88;5112152;28;20037;-73
2021/07/01 04:56:20;;;;;;;36.97;24.35;;;;;;;24.38;69.53;99049.38;5111955;28;20036;-76
2021/07/01 04:58:46;;;;;;;31.92;25.00;;;;;;;24.44;69.53;99048.88;5112204;28;20473;-74
2021/07/01 05:01:12;;;;;;;30.10;24.45;;;;;;;24.52;69.44;99053.97;5113314;28;20038;-72
2021/07/01 05:03:37;;;;;;;26.17;22.65;;;;;;;24.48;68.66;99049.59;5113190;28;20411;-76
2021/07/01 05:06:04;;;;;;;29.85;23.67;;;;;;;24.59;68.67;99053.00;5113236;28;20118;-72
2021/07/01 05:08:30;;;;;;;35.95;23.45;;;;;;;24.62;68.58;99052.13;5113107;28;20039;-72
2021/07/01 05:10:56;;;;;;;35.47;25.65;;;;;;;24.63;69.02;99047.22;5111774;28;20028;-73
2021/07/01 05:13:21;;;;;;;36.45;26.10;;;;;;;24.66;68.77;99052.06;5126141;27;20059;-77
2021/07/01 05:15:48;;;;;;;38.47;28.90;;;;;;;24.63;68.94;99048.00;5111701;28;20052;-74
2021/07/01 05:18:14;;;;;;;35.10;25.67;;;;;;;24.60;69.26;99048.09;5113013;28;20027;-71
2021/07/01 05:20:39;;;;;;;28.55;23.70;;;;;;;24.71;68.18;99048.66;5112685;28;20408;-76
2021/07/01 05:23:08;;;;;;;28.33;22.45;;;;;;;24.90;67.43;99040.53;5112962;28;20035;-75
2021/07/01 05:25:33;;;;;;;28.48;23.17;;;;;;;24.84;67.59;99048.00;5113033;28;20032;-71
2021/07/01 05:27:59;;;;;;;58.78;32.65;;;;;;;24.91;68.01;99040.06;5112693;28;20024;-75
2021/07/01 05:30:25;;;;;;;30.08;25.50;;;;;;;25.04;67.32;99033.63;5101896;28;20044;-75
2021/07/01 05:32:50;;;;;;;35.83;23.92;;;;;;;24.96;67.82;99035.88;5109379;28;20055;-75
2021/07/01 05:35:16;;;;;;;37.30;26.25;;;;;;;25.11;68.20;99032.69;5120383;27;20134;-71
2021/07/01 05:37:41;;;;;;;44.65;25.92;;;;;;;25.16;68.02;99038.69;5118148;27;20407;-73
2021/07/01 05:40:07;;;;;;;37.85;25.55;;;;;;;25.23;68.33;99029.13;5118156;27;20043;-73
2021/07/01 05:42:33;;;;;;;29.17;23.50;;;;;;;25.31;67.62;99019.06;5119818;27;20026;-75
2021/07/01 05:44:58;;;;;;;29.58;24.27;;;;;;;25.32;67.59;99014.97;5112663;28;20096;-72
2021/07/01 05:47:24;;;;;;;32.38;23.42;;;;;;;25.33;67.50;99027.22;5122252;27;20042;-71
2021/07/01 05:49:50;;;;;;;26.00;23.20;;;;;;;25.42;66.79;99027.41;5115766;27;20470;-74
2021/07/01 05:52:22;;;;;;;32.17;21.88;;;;;;;25.41;66.13;99028.66;5111074;28;20027;-77
2021/07/01 05:54:59;;;;;;;30.73;22.40;;;;;;;25.53;66.19;99027.16;5112557;28;20073;-73
2021/07/01 05:57:25;;;;;;;21.45;19.17;;;;;;;25.69;64.14;99022.63;5111009;28;20032;-72
2021/07/01 05:59:51;;;;;;;33.35;21.88;;;;;;;25.75;65.21;99026.59;5112431;28;20031;-76
2021/07/01 06:02:16;;;;;;;41.67;21.83;;;;;;;25.84;65.02;99023.06;5110929;28;20465;-72
2021/07/01 06:04:42;;;;;;;42.17;22.38;;;;;;;25.91;64.91;99022.88;5111873;28;20038;-76
2021/07/01 06:07:10;;;;;;;31.33;21.75;;;;;;;26.11;63.99;99005.53;5110692;28;20019;-77
2021/07/01 06:09:37;;;;;;;27.45;20.23;;;;;;;26.24;61.84;99010.53;5122648;27;20468;-72
2021/07/01 06:12:03;;;;;;;25.90;19.17;;;;;;;26.24;61.40;99013.38;5114119;27;20019;-76
2021/07/01 06:14:29;;;;;;;25.45;20.65;;;;;;;26.32;61.42;99009.06;5112136;28;20042;-75
2021/07/01 06:16:58;;;;;;;26.13;20.20;;;;;;;26.32;61.97;99011.94;5111758;28;20038;-72
2021/07/01 06:19:24;;;;;;;23.60;19.38;;;;;;;26.47;61.66;99015.97;5111118;28;20488;-74
2021/07/01 06:21:50;;;;;;;27.90;18.45;;;;;;;26.30;61.27;99011.56;5111167;28;20031;-73
2021/07/01 06:24:16;;;;;;;23.08;18.20;;;;;;;26.52;60.05;99010.91;5111104;28;20070;-74
2021/07/01 06:26:44;;;;;;;19.13;16.85;;;;;;;26.68;58.88;99007.97;5115803;27;20053;-75
2021/07/01 06:29:11;;;;;;;25.23;17.17;;;;;;;26.78;59.06;99008.88;5110051;28;20036;-73
2021/07/01 06:31:37;;;;;;;22.75;17.10;;;;;;;26.78;58.85;99003.94;5119005;27;20081;-72
2021/07/01 06:34:04;;;;;;;23.23;16.95;;;;;;;27.02;58.63;99002.84;5110681;28;20036;-73
2021/07/01 06:36:32;;;;;;;19.63;17.58;;;;;;;27.05;59.13;99002.72;5109740;28;20035;-74
2021/07/01 06:39:01;;;;;;;23.63;17.35;;;;;;;27.35;58.12;99002.56;5109985;28;20088;-72
2021/07/01 06:41:29;;;;;;;26.33;17.75;;;;;;;27.40;58.09;98995.44;5111171;28;20097;-73
2021/07/01 06:43:56;;;;;;;22.15;17.95;;;;;;;27.52;57.88;99003.22;5111088;28;20030;-71
2021/07/01 06:46:22;;;;;;;24.45;17.58;;;;;;;27.57;58.17;99002.66;5110754;28;20036;-71
2021/07/01 06:48:51;;;;;;;23.25;17.42;;;;;;;27.65;58.36;98997.44;5111272;28;20400;-74
2021/07/01 06:51:18;;;;;;;28.20;16.75;;;;;;;27.69;56.17;99000.19;5116586;27;20038;-79
2021/07/01 06:53:45;;;;;;;18.52;16.38;;;;;;;27.77;55.66;98992.13;5111084;28;20449;-71
2021/07/01 06:56:11;;;;;;;20.23;16.67;;;;;;;27.91;55.93;98994.47;5109611;28;20062;-73
2021/07/01 06:58:37;;;;;;;19.15;13.93;;;;;;;27.97;53.60;98989.75;5110934;28;20032;-72
2021/07/01 07:01:03;;;;;;;28.23;15.05;;;;;;;27.83;54.64;98988.19;5109606;28;20038;-73
2021/07/01 07:03:29;;;;;;;19.58;14.90;;;;;;;27.95;54.93;98989.41;5110809;28;20027;-74
2021/07/01 07:05:57;;;;;;;18.65;14.15;;;;;;;27.97;54.41;98986.88;5109587;28;20082;-71
2021/07/01 07:08:23;;;;;;;16.08;14.45;;;;;;;28.09;53.82;98978.66;5102883;28;20081;-71
2021/07/01 07:10:49;;;;;;;35.67;14.68;;;;;;;28.19;54.12;98991.84;5109402;28;20023;-71
2021/07/01 07:13:16;;;;;;;20.42;14.40;;;;;;;28.27;55.28;98975.13;5109774;28;20102;-71
2021/07/01 07:15:43;;;;;;;19.20;13.55;;;;;;;28.47;55.42;98977.63;5109936;28;20416;-71
2021/07/01 07:18:19;;;;;;;17.65;13.57;;;;;;;28.57;52.75;98976.41;5109371;28;20020;-71
2021/07/01 07:20:46;;;;;;;16.48;13.60;;;;;;;28.69;54.01;98973.91;5110696;28;20032;-71
2021/07/01 07:23:19;;;;;;;21.08;14.02;;;;;;;28.88;54.25;98976.88;5109893;28;20024;-71
2021/07/01 07:25:46;;;;;;;18.52;14.18;;;;;;;28.83;52.07;98975.41;5109389;28;20036;-71
2021/07/01 07:28:12;;;;;;;25.90;15.52;;;;;;;28.90;52.88;98977.19;5110792;28;20027;-71
2021/07/01 07:30:39;;;;;;;19.17;14.75;;;;;;;28.98;52.59;98969.88;5110703;28;20413;-72
2021/07/01 07:33:07;;;;;;;36.90;16.33;;;;;;;29.07;51.70;98975.66;5110659;28;20063;-72
2021/07/01 07:35:34;;;;;;;19.05;14.75;;;;;;;29.10;51.34;98979.69;5110594;28;20523;-71
2021/07/01 07:38:00;;;;;;;17.73;14.20;;;;;;;29.14;51.55;98972.50;5110575;28;20042;-71
2021/07/01 07:40:29;;;;;;;19.10;13.85;;;;;;;29.26;51.79;98964.19;5110680;28;20036;-71
2021/07/01 07:42:55;;;;;;;17.88;14.50;;;;;;;29.47;51.47;98973.22;5110587;28;20493;-72
2021/07/01 07:45:21;;;;;;;19.92;14.93;;;;;;;29.54;51.61;98970.03;5117371;28;20059;-71
2021/07/01 07:47:46;;;;;;;21.08;16.55;;;;;;;29.50;51.40;98967.31;5117171;27;20057;-72
2021/07/01 07:50:14;;;;;;;21.77;15.65;;;;;;;29.57;51.49;98971.94;5110704;28;20050;-71
2021/07/01 07:52:45;;;;;;;21.98;15.43;;;;;;;29.80;48.91;98964.75;5121720;28;20405;-71
2021/07/01 07:55:14;;;;;;;16.25;14.65;;;;;;;29.82;50.49;98967.97;5111968;27;20095;-72
2021/07/01 07:57:40;;;;;;;19.10;15.85;;;;;;;29.98;49.52;98963.91;5111985;28;20031;-72
2021/07/01 08:00:07;;;;;;;17.85;15.77;;;;;;;30.03;50.23;98961.69;5113306;28;20499;-71
2021/07/01 08:02:59;;;;;;;22.52;14.98;;;;;;;29.93;49.63;98955.16;5123355;27;20046;-72
2021/07/01 08:05:33;;;;;;;18.08;15.27;;;;;;;29.85;50.36;98954.66;5115123;27;20067;-71
2021/07/01 08:08:00;;;;;;;23.30;15.90;;;;;;;29.98;49.11;98948.72;5114515;28;20030;-71
2021/07/01 08:10:32;;;;;;;21.92;15.65;;;;;;;30.09;49.53;98960.59;5131705;27;20092;-72
2021/07/01 08:13:07;;;;;;;18.75;15.18;;;;;;;30.12;49.70;98958.84;5123566;27;20285;-72
2021/07/01 08:15:35;;;;;;;23.23;16.75;;;;;;;30.21;50.11;98955.13;5114323;28;20039;-72
2021/07/01 08:18:02;;;;;;;20.25;14.98;;;;;;;30.40;50.24;98947.22;5114279;28;20106;-72
2021/07/01 08:20:29;;;;;;;21.42;15.70;;;;;;;30.43;50.10;98951.22;5113988;28;20036;-71
2021/07/01 08:22:56;;;;;;;17.55;15.50;;;;;;;30.41;49.53;98948.81;5122273;27;20412;-72
2021/07/01 08:25:23;;;;;;;17.42;15.68;;;;;;;30.30;50.14;98946.47;5118869;27;20497;-71
2021/07/01 08:27:50;;;;;;;17.92;16.05;;;;;;;30.42;49.65;98938.88;5113908;28;20044;-71
2021/07/01 08:30:22;;;;;;;21.38;16.17;;;;;;;30.50;49.14;98945.09;5113832;28;20400;-72
2021/07/01 08:32:53;;;;;;;22.40;15.40;;;;;;;30.63;48.82;98942.84;5126994;27;20033;-72
2021/07/01 08:35:21;;;;;;;22.38;15.18;;;;;;;30.79;48.81;98943.75;5113798;28;20520;-71
2021/07/01 08:37:49;;;;;;;16.05;14.45;;;;;;;30.89;48.57;98938.72;5113869;28;20032;-73
2021/07/01 08:40:16;;;;;;;18.58;14.65;;;;;;;31.06;47.93;98937.00;5120651;27;20523;-71
2021/07/01 08:42:42;;;;;;;19.88;15.45;;;;;;;31.31;47.31;98937.81;5119630;27;20026;-73
2021/07/01 08:45:14;;;;;;;22.83;15.30;;;;;;;31.45;46.40;98929.72;5114121;28;20397;-73
2021/07/01 08:47:42;;;;;;;16.98;13.82;;;;;;;31.33;46.98;98932.38;5113799;28;20039;-72
2021/07/01 08:50:10;;;;;;;24.23;15.27;;;;;;;31.56;46.95;98924.19;5132132;27;20026;-72
2021/07/01 08:52:46;;;;;;;20.42;13.60;;;;;;;31.60;45.93;98912.41;5122279;27;20638;-71
2021/07/01 08:55:17;;;;;;;17.92;14.00;;;;;;;31.77;46.02;98921.41;5131711;27;20027;-71
2021/07/01 08:57:47;;;;;;;22.98;14.30;;;;;;;31.79;46.12;98916.78;5122107;27;20501;-72
2021/07/01 09:00:17;;;;;;;17.55;14.55;;;;;;;31.87;46.57;98914.28;5113670;28;20023;-71
2021/07/01 09:03:03;;;;;;;15.02;13.35;;;;;;;32.12;45.16;98912.09;5112274;28;20084;-71
2021/07/01 09:05:31;;;;;;;15.05;13.63;;;;;;;32.24;43.99;98904.44;5113257;28;20023;-71
2021/07/01 09:07:58;;;;;;;19.50;13.95;;;;;;;32.26;45.08;98898.94;5111501;28;20028;-72
2021/07/01 09:10:25;;;;;;;15.95;14.23;;;;;;;32.33;45.33;98901.41;5130336;27;20031;-71
2021/07/01 09:12:58;;;;;;;13.80;12.50;;;;;;;32.41;45.91;98901.06;5123116;27;20034;-72
2021/07/01 09:15:25;;;;;;;19.42;13.68;;;;;;;32.49;44.28;98887.78;5112903;27;20050;-71
2021/07/01 09:17:52;;;;;;;16.83;12.88;;;;;;;32.56;43.99;98893.13;5121381;27;20034;-71
2021/07/01 09:20:24;;;;;;;25.20;13.15;;;;;;;32.62;42.88;98891.13;5115945;27;20055;-71
2021/07/01 09:22:53;;;;;;;26.42;14.15;;;;;;;32.84;42.93;98877.50;5112548;28;20031;-72
2021/07/01 09:25:20;;;;;;;15.25;12.18;;;;;;;32.98;42.48;98875.88;5126827;27;20023;-70
2021/07/01 09:27:48;;;;;;;20.52;13.98;;;;;;;32.95;42.98;98886.38;5114305;27;20031;-72
2021/07/01 09:30:17;;;;;;;19.42;12.70;;;;;;;33.03;41.93;98872.25;5113251;28;20039;-71
2021/07/01 09:32:43;;;;;;;23.95;12.38;;;;;;;33.20;41.42;98884.06;5112687;28;20501;-72
2021/07/01 09:35:12;;;;;;;12.95;11.13;;;;;;;33.08;41.35;98880.25;5112929;28;20096;-72
2021/07/01 09:37:40;;;;;;;18.08;11.95;;;;;;;33.02;42.22;98876.44;5112847;28;20489;-72
2021/07/01 09:40:08;;;;;;;27.45;11.98;;;;;;;33.16;40.05;98874.81;5113204;27;20376;-71
2021/07/01 09:42:34;;;;;;;21.27;12.38;;;;;;;33.47;40.90;98874.16;5112711;28;20023;-72
2021/07/01 09:45:06;;;;;;;23.00;11.85;;;;;;;33.55;40.09;98871.59;5112866;28;20023;-71
2021/07/01 09:47:37;;;;;;;19.88;11.73;;;;;;;33.57;40.66;98866.09;5112646;28;20055;-71
2021/07/01 09:50:03;;;;;;;17.73;12.02;;;;;;;33.57;40.75;98853.72;5112773;27;20106;-72
2021/07/01 09:52:33;;;;;;;19.50;12.63;;;;;;;33.61;41.48;98857.19;5112469;28;20107;-71
2021/07/01 09:55:00;;;;;;;16.98;13.13;;;;;;;33.67;40.85;98855.16;5112629;28;20019;-71
2021/07/01 09:57:29;;;;;;;20.90;12.15;;;;;;;33.79;40.69;98855.22;5112291;28;20039;-70
2021/07/01 09:59:58;;;;;;;19.63;13.98;;;;;;;33.61;41.42;98848.47;5112469;28;20031;-72
2021/07/01 10:02:24;;;;;;;;;;;;;;;33.78;40.22;98854.44;5112726;28;20580;-71
2021/07/01 10:04:51;;;;;;;16.08;12.32;;;;;;;33.90;40.67;98855.34;5112358;28;20006;-71
2021/07/01 10:07:20;;;;;;;14.02;11.82;;;;;;;33.94;40.71;98843.53;5112122;28;20043;-71
2021/07/01 10:09:49;;;;;;;20.65;13.68;;;;;;;33.87;40.55;98839.78;5110809;28;20035;-71
2021/07/01 10:12:19;;;;;;;19.50;12.77;;;;;;;33.99;39.63;98832.00;5130683;27;20416;-72
2021/07/01 10:14:44;;;;;;;17.58;12.60;;;;;;;33.90;40.34;98837.94;5120726;27;20028;-71
2021/07/01 10:17:12;;;;;;;28.63;12.25;;;;;;;34.22;39.02;98840.13;5110392;28;20115;-71
2021/07/01 10:19:38;;;;;;;17.67;11.48;;;;;;;34.04;35.73;98836.25;5120459;27;20437;-76
2021/07/01 10:22:09;;;;;;;20.80;10.90;;;;;;;34.10;37.48;98828.41;5115362;27;20036;-71
2021/07/01 10:25:00;;;;;;;15.18;11.43;;;;;;;34.35;38.25;98819.34;5110532;28;20029;-73
2021/07/01 10:27:33;;;;;;;18.38;11.52;;;;;;;34.51;37.51;98812.91;5110228;28;20028;-77
2021/07/01 10:30:01;;;;;;;20.58;12.38;;;;;;;34.46;38.25;98807.03;5112326;28;20339;-76
2021/07/01 10:32:57;;;;;;;26.00;11.32;;;;;;;34.68;37.62;98801.38;5110277;28;20038;-73
2021/07/01 10:35:41;;;;;;;14.95;10.90;;;;;;;34.82;36.01;98808.31;5099933;28;20054;-80
2021/07/01 10:38:08;;;;;;;27.38;10.65;;;;;;;34.88;34.41;98799.63;5110098;28;20019;-79
2021/07/01 10:40:39;;;;;;;30.60;10.82;;;;;;;34.92;35.99;98802.28;5111454;28;20036;-75
2021/07/01 10:43:06;;;;;;;20.65;10.80;;;;;;;34.99;36.84;98799.69;5111558;28;20028;-75
2021/07/01 10:45:33;;;;;;;14.55;10.10;;;;;;;35.04;36.33;98795.25;5110094;28;20039;-77
2021/07/01 10:48:31;;;;;;;17.70;11.18;;;;;;;35.21;36.93;98782.88;5109828;28;20032;-76
2021/07/01 10:51:09;;;;;;;18.30;12.57;;;;;;;35.36;35.78;98776.84;5088949;27;20427;-73
2021/07/01 10:53:43;;;;;;;22.00;11.70;;;;;;;35.45;36.28;98770.78;5111414;27;20028;-73
2021/07/01 10:56:21;;;;;;;23.40;13.07;;;;;;;35.45;36.43;98773.69;5111182;28;20089;-73
2021/07/01 10:58:57;;;;;;;19.65;12.95;;;;;;;35.62;36.23;98767.13;5109756;27;20447;-73
2021/07/01 11:01:31;;;;;;;19.42;12.55;;;;;;;35.66;36.38;98765.53;5109064;28;20028;-75
2021/07/01 11:04:20;;;;;;;27.67;13.25;;;;;;;35.66;35.39;98753.09;5103909;27;20099;-75
2021/07/01 11:07:00;;;;;;;19.55;13.20;;;;;;;35.84;36.67;98751.81;5114803;27;20462;-73
2021/07/01 11:09:40;;;;;;;;;;;;;;;35.74;35.74;98748.38;5111774;28;20036;-74
2021/07/01 11:12:06;;;;;;;18.95;11.85;;;;;;;35.74;35.95;98738.88;5110867;28;19931;-73
2021/07/01 11:15:05;;;;;;;23.48;12.68;;;;;;;35.79;36.20;98743.88;5111351;28;20054;-73
2021/07/01 11:17:36;;;;;;;25.55;10.90;;;;;;;35.98;35.05;98736.22;5109687;28;20039;-73
2021/07/01 11:20:18;;;;;;;22.50;12.32;;;;;;;35.86;35.15;98734.63;5111229;28;20028;-74
2021/07/01 11:22:57;;;;;;;28.00;15.43;;;;;;;35.98;35.89;98733.28;5093647;28;20032;-73
2021/07/01 11:25:25;;;;;;;21.30;16.38;;;;;;;36.04;37.34;98730.38;5105952;28;20023;-73
2021/07/01 11:27:51;;;;;;;24.33;16.58;;;;;;;35.83;37.74;98733.56;5110465;28;20111;-74
2021/07/01 11:30:25;;;;;;;28.95;16.20;;;;;;;35.67;37.55;98720.63;5110543;28;20438;-74
2021/07/01 11:33:14;;;;;;;32.00;15.27;;;;;;;35.84;36.75;98725.66;5115921;28;20028;-74
2021/07/01 11:35:40;;;;;;;31.10;16.70;;;;;;;35.76;36.89;98716.63;5112969;28;20116;-73
2021/07/01 11:38:30;;;;;;;32.38;15.98;;;;;;;35.75;37.17;98717.97;5113213;28;20024;-73
2021/07/01 11:40:59;;;;;;;20.88;15.88;;;;;;;35.81;37.08;98709.22;5110749;27;20256;-74
2021/07/01 11:43:25;;;;;;;28.27;14.88;;;;;;;36.01;37.12;98711.06;5115437;27;20027;-74
2021/07/01 11:45:51;;;;;;;33.03;14.70;;;;;;;36.12;36.48;98695.75;5115748;27;20039;-74
2021/07/01 11:48:20;;;;;;;26.20;14.52;;;;;;;36.01;35.47;98698.66;5132448;27;20031;-73